Leeuwen, Netherlands
Current Conditions -  °F | °C
As of 12:50 PM on Tuesday 21 Oct 2014 (Local Time) from ETNG Reporting Station
Light Rain Light Rain  
Wind Chill: 54°   Ceiling: 3500
Heat Index: 54°   Visibility: 5mi
Dew Point: 52°   Wind: 14mph
Humidity: 94%   Direction: 220°SW
Pressure: 29.65"   Gusts: NA
Location:  51.21°N, 6°E
Report Text: ETNG 211050Z 22012KT 8000 -RA FEW010 SCT015 BKN035 12/11 Q1004 RERA NOSIG
Loading
Personal Weather Stations






























Interactive Weather Map
Tropical Storm Tracking
New forecast layout! Learn more

10-Day Weather Forecast

Advertisements
Track Severe Weather on mobile